createdAt,value
2022-09-10T00:00:57.509Z,95513
2022-09-10T00:02:04.288Z,95516
2022-09-10T00:03:14.043Z,95516
2022-09-10T00:04:23.633Z,95518
2022-09-10T00:05:31.312Z,95517
2022-09-10T00:06:39.998Z,95524
2022-09-10T00:07:48.679Z,95515
2022-09-10T00:08:57.418Z,95509
2022-09-10T00:10:07.037Z,95513
2022-09-10T00:11:15.766Z,95512
2022-09-10T00:12:24.426Z,95514
2022-09-10T00:13:34.114Z,95510
2022-09-10T00:14:41.820Z,95516
2022-09-10T00:15:51.551Z,95513
2022-09-10T00:17:00.148Z,95517
2022-09-10T00:18:08.838Z,95509
2022-09-10T00:19:18.537Z,95511
2022-09-10T00:20:28.311Z,95510
2022-09-10T00:21:38.008Z,95515
2022-09-10T00:22:47.696Z,95515
2022-09-10T00:23:56.388Z,95523
2022-09-10T00:25:08.293Z,95522
2022-09-10T00:26:15.793Z,95520
2022-09-10T00:27:24.508Z,95525
2022-09-10T00:28:34.246Z,95525
2022-09-10T00:29:41.891Z,95525
2022-09-10T00:30:51.579Z,95533
2022-09-10T00:32:01.279Z,95533
2022-09-10T00:33:09.002Z,95533
2022-09-10T00:34:17.669Z,95530
2022-09-10T00:35:26.405Z,95528
2022-09-10T00:36:36.174Z,95530
2022-09-10T00:37:45.844Z,95530
2022-09-10T00:38:54.526Z,95529
2022-09-10T00:40:03.288Z,95531
2022-09-10T00:41:12.896Z,95527
2022-09-10T00:42:21.593Z,95524
2022-09-10T00:43:30.377Z,95531
2022-09-10T00:44:39.083Z,95528
2022-09-10T00:45:47.776Z,95524
2022-09-10T00:46:57.425Z,95522
2022-09-10T00:48:07.117Z,95525
2022-09-10T00:49:15.813Z,95518
2022-09-10T00:50:25.511Z,95519
2022-09-10T00:51:33.235Z,95520
2022-09-10T00:52:42.877Z,95513
2022-09-10T00:53:51.610Z,95512
2022-09-10T00:55:00.320Z,95511
2022-09-10T00:56:09.986Z,95509
2022-09-10T00:57:17.663Z,95508
2022-09-10T00:58:27.386Z,95512
2022-09-10T00:59:43.833Z,95510
2022-09-10T01:00:52.586Z,95508
2022-09-10T01:02:01.323Z,95509
2022-09-10T01:03:10.967Z,95507
2022-09-10T01:04:18.609Z,95503
2022-09-10T01:05:27.283Z,95499
2022-09-10T01:06:36.984Z,95501
2022-09-10T01:07:46.642Z,95503
2022-09-10T01:08:56.314Z,95500
2022-09-10T01:10:03.967Z,95501
2022-09-10T01:11:12.626Z,95500
2022-09-10T01:12:21.323Z,95502
2022-09-10T01:13:30.995Z,95500
2022-09-10T01:14:40.719Z,95498
2022-09-10T01:15:48.386Z,95509
2022-09-10T01:16:57.104Z,95505
2022-09-10T01:18:06.850Z,95503
2022-09-10T01:19:14.523Z,95501
2022-09-10T01:20:23.210Z,95501
2022-09-10T01:21:31.872Z,95492
2022-09-10T01:22:40.555Z,95494
2022-09-10T01:23:50.362Z,95493
2022-09-10T01:24:59.038Z,95493
2022-09-10T01:26:07.712Z,95497
2022-09-10T01:27:17.376Z,95498
2022-09-10T01:28:26.039Z,95498
2022-09-10T01:29:35.853Z,95496
2022-09-10T01:30:45.549Z,95496
2022-09-10T01:31:54.266Z,95495
2022-09-10T01:33:02.990Z,95499
2022-09-10T01:34:10.648Z,95497
2022-09-10T01:35:20.381Z,95495
2022-09-10T01:36:30.115Z,95496
2022-09-10T01:37:38.784Z,95496
2022-09-10T01:38:47.464Z,95486
2022-09-10T01:39:57.139Z,95482
2022-09-10T01:41:05.798Z,95479
2022-09-10T01:42:15.461Z,95480
2022-09-10T01:43:23.142Z,95483
2022-09-10T01:44:31.797Z,95483
2022-09-10T01:45:41.541Z,95483
2022-09-10T01:46:50.277Z,95473
2022-09-10T01:47:58.944Z,95475
2022-09-10T01:49:07.619Z,95473
2022-09-10T01:50:16.287Z,95472
2022-09-10T01:51:25.953Z,95473
2022-09-10T01:52:34.691Z,95475
2022-09-10T01:53:43.334Z,95475
2022-09-10T01:54:53.040Z,95475
2022-09-10T01:56:00.736Z,95470
2022-09-10T01:57:09.422Z,95475
2022-09-10T01:58:18.140Z,95474
2022-09-10T01:59:27.821Z,95471
2022-09-10T02:00:37.660Z,95471
2022-09-10T02:01:45.233Z,95469
2022-09-10T02:02:54.864Z,95468
2022-09-10T02:04:04.634Z,95464
2022-09-10T02:05:14.300Z,95465
2022-09-10T02:06:22.969Z,95465
2022-09-10T02:07:31.637Z,95464
2022-09-10T02:08:40.468Z,95465
2022-09-10T02:09:50.118Z,95459
2022-09-10T02:10:58.799Z,95464
2022-09-10T02:12:07.443Z,95467
2022-09-10T02:13:17.142Z,95469
2022-09-10T02:14:25.827Z,95462
2022-09-10T02:15:34.526Z,95464
2022-09-10T02:16:44.203Z,95466
2022-09-10T02:17:53.886Z,95465
2022-09-10T02:19:03.566Z,95466
2022-09-10T02:20:11.249Z,95466
2022-09-10T02:21:20.962Z,95461
2022-09-10T02:22:30.633Z,95461
2022-09-10T02:23:38.307Z,95460
2022-09-10T02:24:46.981Z,95457
2022-09-10T02:25:56.694Z,95460
2022-09-10T02:27:06.412Z,95454
2022-09-10T02:28:16.062Z,95456
2022-09-10T02:29:24.743Z,95458
2022-09-10T02:30:33.409Z,95452
2022-09-10T02:31:43.111Z,95448
2022-09-10T02:32:51.786Z,95449
2022-09-10T02:34:00.486Z,95451
2022-09-10T02:35:08.186Z,95454
2022-09-10T02:36:16.855Z,95457
2022-09-10T02:37:26.545Z,95451
2022-09-10T02:38:34.278Z,95449
2022-09-10T02:39:42.930Z,95450
2022-09-10T02:40:52.613Z,95455
2022-09-10T02:42:00.349Z,95457
2022-09-10T02:43:09.039Z,95457
2022-09-10T02:44:18.739Z,95450
2022-09-10T02:45:28.460Z,95455
2022-09-10T02:46:38.105Z,95455
2022-09-10T02:47:47.757Z,95453
2022-09-10T02:48:56.409Z,95455
2022-09-10T02:50:06.247Z,95459
2022-09-10T02:51:14.929Z,95457
2022-09-10T02:52:23.627Z,95458
2022-09-10T02:53:32.325Z,95453
2022-09-10T02:54:41.059Z,95452
2022-09-10T02:55:50.782Z,95456
2022-09-10T02:56:58.470Z,95451
2022-09-10T02:58:07.148Z,95456
2022-09-10T02:59:16.838Z,95451
2022-09-10T03:00:24.646Z,95448
2022-09-10T03:01:33.348Z,95449
2022-09-10T03:02:42.007Z,95451
2022-09-10T03:03:50.714Z,95453
2022-09-10T03:04:59.389Z,95456
2022-09-10T03:06:09.102Z,95451
2022-09-10T03:07:17.785Z,95448
2022-09-10T03:08:26.467Z,95452
2022-09-10T03:09:35.145Z,95446
2022-09-10T03:10:44.812Z,95447
2022-09-10T03:11:52.514Z,95451
2022-09-10T03:13:01.206Z,95451
2022-09-10T03:14:09.884Z,95451
2022-09-10T03:15:18.563Z,95447
2022-09-10T03:16:28.306Z,95448
2022-09-10T03:17:36.945Z,95448
2022-09-10T03:18:45.628Z,95450
2022-09-10T03:19:55.318Z,95444
2022-09-10T03:21:02.979Z,95446
2022-09-10T03:22:13.011Z,95451
2022-09-10T03:23:22.647Z,95446
2022-09-10T03:24:32.339Z,95445
2022-09-10T03:25:42.000Z,95448
2022-09-10T03:26:51.682Z,95446
2022-09-10T03:28:00.405Z,95449
2022-09-10T03:29:10.102Z,95444
2022-09-10T03:30:17.798Z,95445
2022-09-10T03:31:27.578Z,95447
2022-09-10T03:32:37.182Z,95447
2022-09-10T03:33:46.908Z,95444
2022-09-10T03:34:56.585Z,95448
2022-09-10T03:36:04.378Z,95447
2022-09-10T03:37:13.019Z,95445
2022-09-10T03:38:22.711Z,95449
2022-09-10T03:39:31.403Z,95444
2022-09-10T03:40:40.105Z,95447
2022-09-10T03:41:48.790Z,95451
2022-09-10T03:42:57.533Z,95447
2022-09-10T03:44:07.210Z,95447
2022-09-10T03:45:14.868Z,95444
2022-09-10T03:46:23.545Z,95447
2022-09-10T03:47:33.279Z,95448
2022-09-10T03:48:42.923Z,95446
2022-09-10T03:49:52.599Z,95449
2022-09-10T03:51:03.286Z,95447
2022-09-10T03:52:11.959Z,95450
2022-09-10T03:53:21.803Z,95447
2022-09-10T03:54:29.469Z,95449
2022-09-10T03:55:38.179Z,95449
2022-09-10T03:56:47.850Z,95445
2022-09-10T03:57:56.502Z,95448
2022-09-10T03:59:06.240Z,95448
2022-09-10T04:00:14.925Z,95451
2022-09-10T04:01:23.651Z,95448
2022-09-10T04:02:33.341Z,95451
2022-09-10T04:03:42.023Z,95444
2022-09-10T04:04:50.721Z,95445
2022-09-10T04:05:59.386Z,95443
2022-09-10T04:07:07.062Z,95446
2022-09-10T04:08:16.773Z,95443
2022-09-10T04:09:25.484Z,95446
2022-09-10T04:10:35.246Z,95451
2022-09-10T04:11:44.964Z,95445
2022-09-10T04:12:53.664Z,95450
2022-09-10T04:14:03.480Z,95451
2022-09-10T04:15:13.149Z,95449
2022-09-10T04:16:21.855Z,95450
2022-09-10T04:17:31.516Z,95448
2022-09-10T04:18:40.366Z,95448
2022-09-10T04:19:48.843Z,95447
2022-09-10T04:20:58.512Z,95448
2022-09-10T04:22:06.275Z,95451
2022-09-10T04:23:15.036Z,95451
2022-09-10T04:24:24.712Z,95448
2022-09-10T04:25:33.380Z,95448
2022-09-10T04:26:43.052Z,95449
2022-09-10T04:27:51.772Z,95453
2022-09-10T04:29:00.449Z,95452
2022-09-10T04:30:10.155Z,95453
2022-09-10T04:31:19.827Z,95449
2022-09-10T04:32:29.513Z,95451
2022-09-10T04:33:39.211Z,95453
2022-09-10T04:34:47.898Z,95447
2022-09-10T04:35:56.599Z,95447
2022-09-10T04:37:06.250Z,95449
2022-09-10T04:38:15.913Z,95449
2022-09-10T04:39:25.763Z,95452
2022-09-10T04:40:34.491Z,95454
2022-09-10T04:41:44.145Z,95453
2022-09-10T04:42:53.848Z,95453
2022-09-10T04:44:02.538Z,95456
2022-09-10T04:45:11.239Z,95458
2022-09-10T04:46:19.913Z,95454
2022-09-10T04:47:28.602Z,95453
2022-09-10T04:48:38.346Z,95454
2022-09-10T04:49:46.969Z,95459
2022-09-10T04:51:15.095Z,95455
2022-09-10T04:52:07.308Z,95454
2022-09-10T04:53:15.950Z,95455
2022-09-10T04:54:24.625Z,95453
2022-09-10T04:55:33.305Z,95457
2022-09-10T04:56:42.113Z,95456
2022-09-10T04:57:51.753Z,95457
2022-09-10T04:58:59.398Z,95452
2022-09-10T05:00:08.083Z,95454
2022-09-10T05:01:17.816Z,95455
2022-09-10T05:02:26.489Z,95455
2022-09-10T05:03:36.225Z,95453
2022-09-10T05:04:43.858Z,95457
2022-09-10T05:05:51.536Z,95458
2022-09-10T05:07:00.194Z,95458
2022-09-10T05:08:08.922Z,95453
2022-09-10T05:09:18.559Z,95453
2022-09-10T05:10:26.258Z,95453
2022-09-10T05:11:34.913Z,95460
2022-09-10T05:12:44.646Z,95463
2022-09-10T05:13:52.326Z,95459
2022-09-10T05:15:02.009Z,95463
2022-09-10T05:16:11.720Z,95462
2022-09-10T05:17:21.383Z,95466
2022-09-10T05:18:31.089Z,95458
2022-09-10T05:19:38.753Z,95463
2022-09-10T05:20:48.492Z,95462
2022-09-10T05:21:58.204Z,95463
2022-09-10T05:23:05.887Z,95464
2022-09-10T05:24:14.647Z,95456
2022-09-10T05:25:24.319Z,95463
2022-09-10T05:26:33.000Z,95464
2022-09-10T05:27:42.660Z,95462
2022-09-10T05:28:50.317Z,95465
2022-09-10T05:29:58.967Z,95462
2022-09-10T05:31:08.781Z,95466
2022-09-10T05:32:17.432Z,95470
2022-09-10T05:33:26.152Z,95473
2022-09-10T05:34:34.810Z,95469
2022-09-10T05:35:43.495Z,95470
2022-09-10T05:36:53.216Z,95475
2022-09-10T05:38:02.877Z,95480
2022-09-10T05:39:11.531Z,95475
2022-09-10T05:40:21.231Z,95473
2022-09-10T05:41:29.863Z,95478
2022-09-10T05:42:38.596Z,95478
2022-09-10T05:43:47.261Z,95482
2022-09-10T05:44:55.995Z,95483
2022-09-10T05:46:05.706Z,95482
2022-09-10T05:47:13.311Z,95490
2022-09-10T05:48:22.008Z,95482
2022-09-10T05:49:31.709Z,95486
2022-09-10T05:50:40.415Z,95487
2022-09-10T05:51:49.082Z,95487
2022-09-10T05:52:58.822Z,95490
2022-09-10T05:54:07.559Z,95489
2022-09-10T05:55:17.222Z,95488
2022-09-10T05:56:24.917Z,95493
2022-09-10T05:57:33.565Z,95488
2022-09-10T05:58:42.333Z,95491
2022-09-10T05:59:50.023Z,95491
2022-09-10T06:00:58.715Z,95491
2022-09-10T06:02:08.471Z,95492
2022-09-10T06:03:18.130Z,95495
2022-09-10T06:04:26.767Z,95495
2022-09-10T06:05:34.444Z,95493
2022-09-10T06:06:43.122Z,95495
2022-09-10T06:07:52.786Z,95498
2022-09-10T06:09:01.448Z,95500
2022-09-10T06:10:10.146Z,95496
2022-09-10T06:11:18.842Z,95499
2022-09-10T06:12:27.543Z,95501
2022-09-10T06:13:37.212Z,95501
2022-09-10T06:14:45.910Z,95505
2022-09-10T06:15:54.548Z,95508
2022-09-10T06:17:04.251Z,95512
2022-09-10T06:18:12.930Z,95520
2022-09-10T06:19:22.623Z,95527
2022-09-10T06:20:32.296Z,95528
2022-09-10T06:21:40.959Z,95534
2022-09-10T06:22:50.674Z,95532
2022-09-10T06:23:58.362Z,95531
2022-09-10T06:25:07.028Z,95532
2022-09-10T06:26:16.751Z,95532
2022-09-10T06:27:24.454Z,95537
2022-09-10T06:28:32.170Z,95538
2022-09-10T06:29:41.931Z,95542
2022-09-10T06:30:50.655Z,95544
2022-09-10T06:32:00.400Z,95547
2022-09-10T06:33:08.143Z,95546
2022-09-10T06:34:16.848Z,95548
2022-09-10T06:35:26.520Z,95550
2022-09-10T06:36:35.198Z,95550
2022-09-10T06:37:43.887Z,95553
2022-09-10T06:38:52.654Z,95555
2022-09-10T06:40:02.372Z,95557
2022-09-10T06:41:12.045Z,95556
2022-09-10T06:42:19.757Z,95562
2022-09-10T06:43:28.438Z,95559
2022-09-10T06:44:38.172Z,95559
2022-09-10T06:45:47.022Z,95564
2022-09-10T06:47:30.697Z,95566
2022-09-10T06:49:18.119Z,95565
2022-09-10T06:50:27.941Z,95567
2022-09-10T06:51:35.641Z,95567
2022-09-10T06:52:45.346Z,95568
2022-09-10T06:53:55.052Z,95558
2022-09-10T06:55:02.764Z,95563
2022-09-10T06:56:12.554Z,95560
2022-09-10T06:57:20.259Z,95555
2022-09-10T06:58:28.926Z,95546
2022-09-10T06:59:38.658Z,95549
2022-09-10T07:00:47.391Z,95547
2022-09-10T07:01:57.099Z,95545
2022-09-10T07:03:05.813Z,95551
2022-09-10T07:04:14.503Z,95551
2022-09-10T07:05:24.220Z,95550
2022-09-10T07:06:33.946Z,95552
2022-09-10T07:07:43.626Z,95551
2022-09-10T07:08:52.366Z,95551
2022-09-10T07:10:01.051Z,95549
2022-09-10T07:11:10.727Z,95549
2022-09-10T07:12:19.401Z,95542
2022-09-10T07:13:28.134Z,95545
2022-09-10T07:14:38.828Z,95543
2022-09-10T07:15:47.593Z,95541
2022-09-10T07:16:57.307Z,95544
2022-09-10T07:18:06.993Z,95549
2022-09-10T07:19:14.680Z,95552
2022-09-10T07:20:24.417Z,95546
2022-09-10T07:21:33.102Z,95544
2022-09-10T07:22:42.777Z,95551
2022-09-10T07:23:52.444Z,95554
2022-09-10T07:25:01.139Z,95555
2022-09-10T07:26:10.867Z,95560
2022-09-10T07:27:20.546Z,95558
2022-09-10T07:28:30.274Z,95558
2022-09-10T07:29:39.963Z,95558
2022-09-10T07:30:47.747Z,95558
2022-09-10T07:31:57.362Z,95563
2022-09-10T07:33:07.073Z,95559
2022-09-10T07:34:14.706Z,95565
2022-09-10T07:35:24.425Z,95561
2022-09-10T07:36:33.104Z,95566
2022-09-10T07:37:41.813Z,95566
2022-09-10T07:38:51.525Z,95559
2022-09-10T07:40:00.326Z,95557
2022-09-10T07:41:08.969Z,95560
2022-09-10T07:42:17.652Z,95562
2022-09-10T07:43:26.396Z,95566
2022-09-10T07:44:35.059Z,95566
2022-09-10T07:45:44.791Z,95565
2022-09-10T07:46:53.427Z,95572
2022-09-10T07:48:03.107Z,95567
2022-09-10T07:49:11.956Z,95570
2022-09-10T07:50:20.689Z,95571
2022-09-10T07:51:30.338Z,95572
2022-09-10T07:52:38.983Z,95568
2022-09-10T07:53:50.743Z,95571
2022-09-10T07:54:58.358Z,95570
2022-09-10T07:56:08.052Z,95572
2022-09-10T07:57:17.765Z,95573
2022-09-10T07:58:25.484Z,95572
2022-09-10T07:59:35.163Z,95575
2022-09-10T08:00:45.004Z,95577
2022-09-10T08:01:53.780Z,95573
2022-09-10T08:03:03.418Z,95576
2022-09-10T08:04:13.124Z,95578
2022-09-10T08:05:22.833Z,95580
2022-09-10T08:06:32.535Z,95582
2022-09-10T08:07:40.212Z,95582
2022-09-10T08:08:48.925Z,95588
2022-09-10T08:09:58.567Z,95583
2022-09-10T08:11:11.184Z,95587
2022-09-10T08:12:16.955Z,95585
2022-09-10T08:13:26.628Z,95588
2022-09-10T08:14:35.287Z,95588
2022-09-10T08:15:45.002Z,95590
2022-09-10T08:16:52.664Z,95590
2022-09-10T08:18:01.375Z,95589
2022-09-10T08:19:11.051Z,95588
2022-09-10T08:20:18.736Z,95589
2022-09-10T08:21:28.441Z,95589
2022-09-10T08:22:38.108Z,95588
2022-09-10T08:23:46.784Z,95600
2022-09-10T08:24:56.513Z,95596
2022-09-10T08:26:04.194Z,95597
2022-09-10T08:27:13.866Z,95596
2022-09-10T08:28:25.447Z,95600
2022-09-10T08:29:32.214Z,95599
2022-09-10T08:30:40.905Z,95603
2022-09-10T08:31:50.570Z,95598
2022-09-10T08:32:59.221Z,95605
2022-09-10T08:34:08.896Z,95601
2022-09-10T08:35:17.619Z,95599
2022-09-10T08:36:27.356Z,95601
2022-09-10T08:37:37.059Z,95597
2022-09-10T08:38:46.738Z,95602
2022-09-10T08:39:56.434Z,95602
2022-09-10T08:41:06.145Z,95596
2022-09-10T08:42:15.824Z,95599
2022-09-10T08:43:25.509Z,95602
2022-09-10T08:44:34.182Z,95604
2022-09-10T08:45:43.908Z,95606
2022-09-10T08:46:53.533Z,95601
2022-09-10T08:48:02.222Z,95602
2022-09-10T08:49:11.909Z,95602
2022-09-10T08:50:20.565Z,95602
2022-09-10T08:51:29.240Z,95605
2022-09-10T08:52:38.075Z,95598
2022-09-10T08:53:46.788Z,95603
2022-09-10T08:54:55.451Z,95605
2022-09-10T08:56:05.167Z,95605
2022-09-10T08:57:14.879Z,95608
2022-09-10T08:58:23.598Z,95609
2022-09-10T08:59:33.290Z,95605
2022-09-10T09:00:40.992Z,95608
2022-09-10T09:01:50.832Z,95607
2022-09-10T09:02:59.411Z,95605
2022-09-10T09:04:08.107Z,95601
2022-09-10T09:05:17.797Z,95608
2022-09-10T09:06:25.480Z,95606
2022-09-10T09:07:35.180Z,95604
2022-09-10T09:08:44.852Z,95605
2022-09-10T09:09:54.639Z,95611
2022-09-10T09:11:03.298Z,95606
2022-09-10T09:12:11.985Z,95608
2022-09-10T09:13:20.647Z,95608
2022-09-10T09:14:30.374Z,95602
2022-09-10T09:15:39.123Z,95611
2022-09-10T09:16:48.746Z,95606
2022-09-10T09:17:58.487Z,95606
2022-09-10T09:19:07.199Z,95613
2022-09-10T09:20:16.018Z,95613
2022-09-10T09:21:24.739Z,95604
2022-09-10T09:22:35.885Z,95608
2022-09-10T09:23:57.039Z,95610
2022-09-10T09:24:53.689Z,95605
2022-09-10T09:26:02.389Z,95603
2022-09-10T09:27:12.072Z,95606
2022-09-10T09:28:20.843Z,95609
2022-09-10T09:29:29.501Z,95610
2022-09-10T09:30:38.204Z,95596
2022-09-10T09:31:47.881Z,95588
2022-09-10T09:32:57.706Z,95585
2022-09-10T09:34:06.387Z,95587
2022-09-10T09:35:16.105Z,95590
2022-09-10T09:36:25.804Z,95598
2022-09-10T09:37:34.446Z,95594
2022-09-10T09:38:44.153Z,95596
2022-09-10T09:39:51.836Z,95598
2022-09-10T09:41:00.517Z,95589
2022-09-10T09:42:09.222Z,95588
2022-09-10T09:43:17.875Z,95595
2022-09-10T09:44:27.585Z,95596
2022-09-10T09:45:36.298Z,95589
2022-09-10T09:46:45.939Z,95591
2022-09-10T09:47:55.618Z,95591
2022-09-10T09:49:03.291Z,95591
2022-09-10T09:50:12.040Z,95592
2022-09-10T09:51:20.692Z,95593
2022-09-10T09:52:29.373Z,95599
2022-09-10T09:53:39.055Z,95600
2022-09-10T09:55:12.961Z,95596
2022-09-10T09:55:58.393Z,95597
2022-09-10T09:57:08.059Z,95598
2022-09-10T09:58:15.799Z,95596
2022-09-10T09:59:25.514Z,95599
2022-09-10T10:00:34.181Z,95599
2022-09-10T10:01:43.027Z,95599
2022-09-10T10:02:52.562Z,95603
2022-09-10T10:04:00.250Z,95600
2022-09-10T10:05:08.971Z,95604
2022-09-10T10:06:19.640Z,95602
2022-09-10T10:07:27.440Z,95610
2022-09-10T10:08:37.178Z,95601
2022-09-10T10:09:45.919Z,95602
2022-09-10T10:10:54.598Z,95598
2022-09-10T10:12:04.293Z,95599
2022-09-10T10:13:12.017Z,95607
2022-09-10T10:14:21.751Z,95602
2022-09-10T10:15:31.416Z,95604
2022-09-10T10:16:40.057Z,95596
2022-09-10T10:17:49.770Z,95598
2022-09-10T10:18:58.471Z,95598
2022-09-10T10:20:08.148Z,95593
2022-09-10T10:21:17.813Z,95595
2022-09-10T10:22:26.499Z,95596
2022-09-10T10:23:36.176Z,95605
2022-09-10T10:24:46.024Z,95596
2022-09-10T10:25:54.741Z,95597
2022-09-10T10:27:03.456Z,95590
2022-09-10T10:28:12.225Z,95593
2022-09-10T10:29:20.998Z,95588
2022-09-10T10:30:30.755Z,95584
2022-09-10T10:31:39.402Z,95584
2022-09-10T10:32:49.090Z,95585
2022-09-10T10:33:58.817Z,95583
2022-09-10T10:35:07.530Z,95585
2022-09-10T10:36:17.288Z,95587
2022-09-10T10:37:25.965Z,95595
2022-09-10T10:38:34.686Z,95594
2022-09-10T10:39:45.236Z,95590
2022-09-10T10:40:53.874Z,95594
2022-09-10T10:42:02.562Z,95589
2022-09-10T10:43:11.256Z,95584
2022-09-10T10:44:18.928Z,95584
2022-09-10T10:45:27.679Z,95585
2022-09-10T10:46:36.386Z,95585
2022-09-10T10:47:46.038Z,95585
2022-09-10T10:48:57.717Z,95586
2022-09-10T10:50:05.387Z,95580
2022-09-10T10:51:15.104Z,95575
2022-09-10T10:52:24.770Z,95574
2022-09-10T10:53:32.440Z,95565
2022-09-10T10:54:41.173Z,95570
2022-09-10T10:55:49.846Z,95568
2022-09-10T10:56:59.512Z,95566
2022-09-10T10:58:09.185Z,95567
2022-09-10T10:59:16.913Z,95557
2022-09-10T11:00:25.591Z,95563
2022-09-10T11:01:35.319Z,95564
2022-09-10T11:02:44.106Z,95559
2022-09-10T11:03:52.696Z,95558
2022-09-10T11:05:02.427Z,95559
2022-09-10T11:06:12.106Z,95557
2022-09-10T11:07:21.877Z,95561
2022-09-10T11:08:31.597Z,95555
2022-09-10T11:09:41.213Z,95557
2022-09-10T11:10:51.052Z,95557
2022-09-10T11:11:58.731Z,95550
2022-09-10T11:13:06.385Z,95550
2022-09-10T11:14:15.084Z,95552
2022-09-10T11:15:23.803Z,95556
2022-09-10T11:16:33.554Z,95555
2022-09-10T11:17:43.206Z,95563
2022-09-10T11:18:51.954Z,95560
2022-09-10T11:20:24.496Z,95560
2022-09-10T11:21:12.328Z,95554
2022-09-10T11:22:21.006Z,95563
2022-09-10T11:23:30.699Z,95561
2022-09-10T11:24:40.371Z,95558
2022-09-10T11:25:50.026Z,95559
2022-09-10T11:26:59.777Z,95563
2022-09-10T11:28:09.448Z,95564
2022-09-10T11:29:19.176Z,95556
2022-09-10T11:30:27.827Z,95556
2022-09-10T11:31:37.560Z,95568
2022-09-10T11:32:47.205Z,95560
2022-09-10T11:33:57.043Z,95564
2022-09-10T11:35:06.703Z,95558
2022-09-10T11:36:15.360Z,95560
2022-09-10T11:37:25.063Z,95560
2022-09-10T11:38:34.764Z,95569
2022-09-10T11:39:44.528Z,95555
2022-09-10T11:40:54.184Z,95555
2022-09-10T11:42:02.862Z,95570
2022-09-10T11:43:12.542Z,95555
2022-09-10T11:44:21.226Z,95558
2022-09-10T11:45:29.936Z,95558
2022-09-10T11:46:39.651Z,95556
2022-09-10T11:47:47.360Z,95552
2022-09-10T11:48:57.043Z,95547
2022-09-10T11:50:06.783Z,95551
2022-09-10T11:51:15.458Z,95549
2022-09-10T11:52:24.302Z,95551
2022-09-10T11:53:34.017Z,95550
2022-09-10T11:54:43.652Z,95554
2022-09-10T11:55:53.329Z,95555
2022-09-10T11:57:03.040Z,95547
2022-09-10T11:58:12.717Z,95546
2022-09-10T11:59:22.414Z,95543
2022-09-10T12:00:30.063Z,95547
2022-09-10T12:01:38.783Z,95543
2022-09-10T12:02:47.604Z,95547
2022-09-10T12:03:56.311Z,95542
2022-09-10T12:05:05.955Z,95544
2022-09-10T12:06:15.727Z,95548
2022-09-10T12:07:24.565Z,95545
2022-09-10T12:08:34.319Z,95548
2022-09-10T12:09:42.011Z,95544
2022-09-10T12:10:50.689Z,95539
2022-09-10T12:11:59.356Z,95547
2022-09-10T12:13:09.017Z,95544
2022-09-10T12:14:18.768Z,95538
2022-09-10T12:15:27.441Z,95543
2022-09-10T12:16:37.105Z,95542
2022-09-10T12:17:46.763Z,95534
2022-09-10T12:18:54.419Z,95538
2022-09-10T12:20:04.176Z,95537
2022-09-10T12:21:12.852Z,95544
2022-09-10T12:22:21.535Z,95547
2022-09-10T12:23:31.190Z,95540
2022-09-10T12:24:39.844Z,95541
2022-09-10T12:25:48.577Z,95536
2022-09-10T12:26:58.323Z,95529
2022-09-10T12:28:08.316Z,95530
2022-09-10T12:29:17.682Z,95541
2022-09-10T12:30:26.406Z,95534
2022-09-10T12:31:36.105Z,95539
2022-09-10T12:32:45.750Z,95539
2022-09-10T12:33:53.448Z,95537
2022-09-10T12:35:02.162Z,95544
2022-09-10T12:36:12.123Z,95548
2022-09-10T12:37:20.815Z,95548
2022-09-10T12:38:30.524Z,95547
2022-09-10T12:39:40.210Z,95539
2022-09-10T12:40:48.838Z,95542
2022-09-10T12:41:58.512Z,95534
2022-09-10T12:43:07.218Z,95536
2022-09-10T12:44:16.917Z,95533
2022-09-10T12:45:26.616Z,95538
2022-09-10T12:46:35.338Z,95536
2022-09-10T12:47:45.933Z,95524
2022-09-10T12:48:55.674Z,95531
2022-09-10T12:50:04.324Z,95531
2022-09-10T12:51:14.021Z,95529
2022-09-10T12:52:21.686Z,95526
2022-09-10T12:53:30.352Z,95522
2022-09-10T12:54:40.076Z,95530
2022-09-10T12:55:49.721Z,95532
2022-09-10T12:56:58.391Z,95533
2022-09-10T12:58:07.258Z,95524
2022-09-10T12:59:15.792Z,95522
2022-09-10T13:00:25.535Z,95521
2022-09-10T13:01:34.278Z,95523
2022-09-10T13:02:43.875Z,95520
2022-09-10T13:03:54.865Z,95521
2022-09-10T13:05:01.264Z,95521
2022-09-10T13:06:09.991Z,95521
2022-09-10T13:07:19.712Z,95515
2022-09-10T13:08:28.479Z,95523
2022-09-10T13:09:38.168Z,95520
2022-09-10T13:10:45.849Z,95515
2022-09-10T13:11:55.562Z,95517
2022-09-10T13:13:05.260Z,95518
2022-09-10T13:14:13.938Z,95507
2022-09-10T13:15:22.607Z,95513
2022-09-10T13:16:31.338Z,95511
2022-09-10T13:17:40.156Z,95513
2022-09-10T13:18:51.905Z,95511
2022-09-10T13:20:00.583Z,95517
2022-09-10T13:21:09.188Z,95514
2022-09-10T13:22:18.847Z,95516
2022-09-10T13:23:27.570Z,95512
2022-09-10T13:24:36.393Z,95511
2022-09-10T13:25:44.922Z,95523
2022-09-10T13:26:53.607Z,95510
2022-09-10T13:28:03.281Z,95516
2022-09-10T13:29:09.979Z,95511
2022-09-10T13:30:19.665Z,95521
2022-09-10T13:31:28.323Z,95502
2022-09-10T13:32:38.014Z,95514
2022-09-10T13:33:47.688Z,95511
2022-09-10T13:34:56.389Z,95513
2022-09-10T13:36:05.084Z,95517
2022-09-10T13:37:13.766Z,95520
2022-09-10T13:38:22.439Z,95517
2022-09-10T13:39:32.161Z,95510
2022-09-10T13:40:39.847Z,95509
2022-09-10T13:41:48.516Z,95510
2022-09-10T13:42:58.205Z,95509
2022-09-10T13:44:05.852Z,95505
2022-09-10T13:45:15.551Z,95505
2022-09-10T13:46:24.300Z,95504
2022-09-10T13:47:33.963Z,95508
2022-09-10T13:48:43.662Z,95506
2022-09-10T13:49:52.325Z,95499
2022-09-10T13:51:00.997Z,95491
2022-09-10T13:52:10.751Z,95494
2022-09-10T13:53:20.434Z,95508
2022-09-10T13:54:29.149Z,95501
2022-09-10T13:55:38.871Z,95500
2022-09-10T13:56:47.536Z,95511
2022-09-10T13:57:57.252Z,95497
2022-09-10T13:59:04.934Z,95483
2022-09-10T14:00:14.597Z,95498
2022-09-10T14:01:24.356Z,95495
2022-09-10T14:02:31.997Z,95498
2022-09-10T14:03:40.771Z,95487
2022-09-10T14:04:49.383Z,95499
2022-09-10T14:05:58.057Z,95498
2022-09-10T14:07:07.724Z,95510
2022-09-10T14:08:16.401Z,95496
2022-09-10T14:09:25.188Z,95496
2022-09-10T14:10:34.880Z,95498
2022-09-10T14:11:43.540Z,95499
2022-09-10T14:12:52.212Z,95497
2022-09-10T14:14:00.873Z,95492
2022-09-10T14:15:10.585Z,95493
2022-09-10T14:16:20.235Z,95500
2022-09-10T14:17:29.970Z,95487
2022-09-10T14:18:38.772Z,95482
2022-09-10T14:19:47.512Z,95484
2022-09-10T14:20:57.203Z,95482
2022-09-10T14:22:09.916Z,95476
2022-09-10T14:23:16.531Z,95477
2022-09-10T14:24:26.268Z,95484
2022-09-10T14:25:35.954Z,95484
2022-09-10T14:26:44.658Z,95479
2022-09-10T14:27:55.399Z,95490
2022-09-10T14:29:04.016Z,95482
2022-09-10T14:30:11.708Z,95480
2022-09-10T14:31:20.451Z,95484
2022-09-10T14:32:29.070Z,95478
2022-09-10T14:33:37.725Z,95478
2022-09-10T14:34:47.406Z,95472
2022-09-10T14:35:56.069Z,95475
2022-09-10T14:37:05.751Z,95465
2022-09-10T14:38:15.455Z,95462
2022-09-10T14:39:24.136Z,95460
2022-09-10T14:40:32.812Z,95465
2022-09-10T14:41:42.553Z,95460
2022-09-10T14:42:52.229Z,95468
2022-09-10T14:44:00.939Z,95466
2022-09-10T14:45:08.605Z,95462
2022-09-10T14:46:17.321Z,95461
2022-09-10T14:47:26.984Z,95460
2022-09-10T14:48:34.639Z,95463
2022-09-10T14:49:43.361Z,95459
2022-09-10T14:50:52.045Z,95462